sensor_id;sensor_type;location;lat;lon;timestamp;P1;durP1;ratioP1;P2;durP2;ratioP2
76073;SDS011;64776;42.636;24.358;2023-02-28T00:00:50;24.70;;;11.50;;
76073;SDS011;64776;42.636;24.358;2023-02-28T00:03:51;22.58;;;9.25;;
76073;SDS011;64776;42.636;24.358;2023-02-28T00:06:52;18.75;;;7.40;;
76073;SDS011;64776;42.636;24.358;2023-02-28T00:09:54;15.25;;;5.50;;
76073;SDS011;64776;42.636;24.358;2023-02-28T00:12:55;18.50;;;8.23;;
76073;SDS011;64776;42.636;24.358;2023-02-28T00:16:00;22.92;;;9.20;;
76073;SDS011;64776;42.636;24.358;2023-02-28T00:19:02;13.85;;;5.05;;
76073;SDS011;64776;42.636;24.358;2023-02-28T00:22:03;19.70;;;7.32;;
76073;SDS011;64776;42.636;24.358;2023-02-28T00:25:05;13.65;;;5.35;;
76073;SDS011;64776;42.636;24.358;2023-02-28T00:28:07;11.98;;;6.90;;
76073;SDS011;64776;42.636;24.358;2023-02-28T00:31:08;9.90;;;3.80;;
76073;SDS011;64776;42.636;24.358;2023-02-28T00:34:09;22.83;;;9.60;;
76073;SDS011;64776;42.636;24.358;2023-02-28T00:37:09;11.80;;;4.88;;
76073;SDS011;64776;42.636;24.358;2023-02-28T00:40:13;17.67;;;7.03;;
76073;SDS011;64776;42.636;24.358;2023-02-28T00:43:14;20.02;;;7.10;;
76073;SDS011;64776;42.636;24.358;2023-02-28T00:46:15;24.95;;;4.90;;
76073;SDS011;64776;42.636;24.358;2023-02-28T00:49:16;16.13;;;6.28;;
76073;SDS011;64776;42.636;24.358;2023-02-28T00:52:17;12.05;;;5.63;;
76073;SDS011;64776;42.636;24.358;2023-02-28T00:55:19;17.92;;;6.47;;
76073;SDS011;64776;42.636;24.358;2023-02-28T00:58:20;15.63;;;6.97;;
76073;SDS011;64776;42.636;24.358;2023-02-28T01:01:21;15.90;;;8.00;;
76073;SDS011;64776;42.636;24.358;2023-02-28T01:04:22;18.70;;;8.27;;
76073;SDS011;64776;42.636;24.358;2023-02-28T01:07:23;12.90;;;5.95;;
76073;SDS011;64776;42.636;24.358;2023-02-28T01:10:26;17.05;;;7.00;;
76073;SDS011;64776;42.636;24.358;2023-02-28T01:13:28;14.25;;;6.40;;
76073;SDS011;64776;42.636;24.358;2023-02-28T01:16:29;11.98;;;5.18;;
76073;SDS011;64776;42.636;24.358;2023-02-28T01:19:30;19.30;;;7.68;;
76073;SDS011;64776;42.636;24.358;2023-02-28T01:22:31;17.42;;;6.95;;
76073;SDS011;64776;42.636;24.358;2023-02-28T01:25:35;21.17;;;7.80;;
76073;SDS011;64776;42.636;24.358;2023-02-28T01:28:36;17.95;;;8.07;;
76073;SDS011;64776;42.636;24.358;2023-02-28T01:31:37;26.65;;;10.68;;
76073;SDS011;64776;42.636;24.358;2023-02-28T01:34:37;19.50;;;9.77;;
76073;SDS011;64776;42.636;24.358;2023-02-28T01:37:38;18.10;;;7.13;;
76073;SDS011;64776;42.636;24.358;2023-02-28T01:40:40;20.35;;;8.20;;
76073;SDS011;64776;42.636;24.358;2023-02-28T01:43:55;19.80;;;8.23;;
76073;SDS011;64776;42.636;24.358;2023-02-28T01:46:57;17.13;;;8.23;;
76073;SDS011;64776;42.636;24.358;2023-02-28T01:49:58;20.15;;;8.35;;
76073;SDS011;64776;42.636;24.358;2023-02-28T01:53:04;19.40;;;7.07;;
76073;SDS011;64776;42.636;24.358;2023-02-28T01:56:09;15.70;;;6.63;;
76073;SDS011;64776;42.636;24.358;2023-02-28T01:59:12;17.20;;;6.55;;
76073;SDS011;64776;42.636;24.358;2023-02-28T02:02:19;14.32;;;7.15;;
76073;SDS011;64776;42.636;24.358;2023-02-28T02:05:22;17.65;;;7.88;;
76073;SDS011;64776;42.636;24.358;2023-02-28T02:08:25;16.92;;;7.13;;
76073;SDS011;64776;42.636;24.358;2023-02-28T02:11:30;17.30;;;7.65;;
76073;SDS011;64776;42.636;24.358;2023-02-28T02:14:33;21.92;;;10.40;;
76073;SDS011;64776;42.636;24.358;2023-02-28T02:17:44;27.95;;;14.00;;
76073;SDS011;64776;42.636;24.358;2023-02-28T02:20:58;34.05;;;15.57;;
76073;SDS011;64776;42.636;24.358;2023-02-28T02:31:38;19.00;;;9.25;;
76073;SDS011;64776;42.636;24.358;2023-02-28T02:35:01;33.25;;;15.70;;
76073;SDS011;64776;42.636;24.358;2023-02-28T02:38:13;26.98;;;13.02;;
76073;SDS011;64776;42.636;24.358;2023-02-28T02:41:26;22.15;;;7.93;;
76073;SDS011;64776;42.636;24.358;2023-02-28T02:44:36;25.15;;;8.98;;
76073;SDS011;64776;42.636;24.358;2023-02-28T02:47:44;18.27;;;8.40;;
76073;SDS011;64776;42.636;24.358;2023-02-28T02:50:48;25.83;;;11.20;;
76073;SDS011;64776;42.636;24.358;2023-02-28T02:53:51;20.52;;;9.45;;
76073;SDS011;64776;42.636;24.358;2023-02-28T02:56:56;28.73;;;12.13;;
76073;SDS011;64776;42.636;24.358;2023-02-28T02:59:59;36.40;;;13.80;;
76073;SDS011;64776;42.636;24.358;2023-02-28T03:03:02;25.30;;;10.90;;
76073;SDS011;64776;42.636;24.358;2023-02-28T03:06:06;18.92;;;7.63;;
76073;SDS011;64776;42.636;24.358;2023-02-28T03:09:07;22.25;;;8.65;;
76073;SDS011;64776;42.636;24.358;2023-02-28T03:12:09;17.65;;;8.65;;
76073;SDS011;64776;42.636;24.358;2023-02-28T03:15:13;22.52;;;9.07;;
76073;SDS011;64776;42.636;24.358;2023-02-28T03:18:21;22.02;;;10.75;;
76073;SDS011;64776;42.636;24.358;2023-02-28T03:21:32;21.70;;;9.30;;
76073;SDS011;64776;42.636;24.358;2023-02-28T03:24:38;21.27;;;9.32;;
76073;SDS011;64776;42.636;24.358;2023-02-28T03:27:46;20.02;;;8.95;;
76073;SDS011;64776;42.636;24.358;2023-02-28T03:30:55;18.17;;;7.80;;
76073;SDS011;64776;42.636;24.358;2023-02-28T03:34:01;17.40;;;8.25;;
76073;SDS011;64776;42.636;24.358;2023-02-28T03:37:08;26.83;;;10.18;;
76073;SDS011;64776;42.636;24.358;2023-02-28T03:40:15;26.80;;;11.50;;
76073;SDS011;64776;42.636;24.358;2023-02-28T03:43:21;33.75;;;13.15;;
76073;SDS011;64776;42.636;24.358;2023-02-28T03:46:26;32.70;;;14.48;;
76073;SDS011;64776;42.636;24.358;2023-02-28T03:49:31;34.33;;;15.80;;
76073;SDS011;64776;42.636;24.358;2023-02-28T03:52:38;31.23;;;13.50;;
76073;SDS011;64776;42.636;24.358;2023-02-28T03:55:45;44.17;;;19.42;;
76073;SDS011;64776;42.636;24.358;2023-02-28T03:58:49;33.53;;;14.63;;
76073;SDS011;64776;42.636;24.358;2023-02-28T04:01:54;35.72;;;15.05;;
76073;SDS011;64776;42.636;24.358;2023-02-28T04:04:55;71.45;;;33.53;;
76073;SDS011;64776;42.636;24.358;2023-02-28T04:08:04;32.25;;;14.68;;
76073;SDS011;64776;42.636;24.358;2023-02-28T04:11:07;30.63;;;14.00;;
76073;SDS011;64776;42.636;24.358;2023-02-28T04:14:18;41.83;;;18.40;;
76073;SDS011;64776;42.636;24.358;2023-02-28T04:17:19;44.05;;;21.77;;
76073;SDS011;64776;42.636;24.358;2023-02-28T04:20:21;37.95;;;19.45;;
76073;SDS011;64776;42.636;24.358;2023-02-28T04:23:23;43.55;;;20.50;;
76073;SDS011;64776;42.636;24.358;2023-02-28T04:26:24;28.90;;;14.52;;
76073;SDS011;64776;42.636;24.358;2023-02-28T04:29:26;23.98;;;12.07;;
76073;SDS011;64776;42.636;24.358;2023-02-28T04:32:28;28.05;;;12.85;;
76073;SDS011;64776;42.636;24.358;2023-02-28T04:35:29;55.10;;;22.75;;
76073;SDS011;64776;42.636;24.358;2023-02-28T04:38:32;46.13;;;23.52;;
76073;SDS011;64776;42.636;24.358;2023-02-28T04:41:33;36.67;;;16.35;;
76073;SDS011;64776;42.636;24.358;2023-02-28T04:44:34;49.42;;;21.45;;
76073;SDS011;64776;42.636;24.358;2023-02-28T04:47:35;53.75;;;21.60;;
76073;SDS011;64776;42.636;24.358;2023-02-28T04:50:36;111.30;;;47.13;;
76073;SDS011;64776;42.636;24.358;2023-02-28T04:53:38;75.43;;;29.73;;
76073;SDS011;64776;42.636;24.358;2023-02-28T04:56:40;84.30;;;25.80;;
76073;SDS011;64776;42.636;24.358;2023-02-28T04:59:40;62.65;;;22.75;;
76073;SDS011;64776;42.636;24.358;2023-02-28T05:02:41;71.40;;;29.38;;
76073;SDS011;64776;42.636;24.358;2023-02-28T05:05:42;53.63;;;19.40;;
76073;SDS011;64776;42.636;24.358;2023-02-28T05:08:44;61.58;;;17.23;;
76073;SDS011;64776;42.636;24.358;2023-02-28T05:11:45;49.72;;;17.40;;
76073;SDS011;64776;42.636;24.358;2023-02-28T05:14:46;62.33;;;21.67;;
76073;SDS011;64776;42.636;24.358;2023-02-28T05:17:47;73.05;;;20.88;;
76073;SDS011;64776;42.636;24.358;2023-02-28T05:20:48;65.70;;;19.67;;
76073;SDS011;64776;42.636;24.358;2023-02-28T05:23:50;60.47;;;18.48;;
76073;SDS011;64776;42.636;24.358;2023-02-28T05:26:51;70.13;;;20.25;;
76073;SDS011;64776;42.636;24.358;2023-02-28T05:29:53;54.47;;;20.08;;
76073;SDS011;64776;42.636;24.358;2023-02-28T05:32:54;69.30;;;19.27;;
76073;SDS011;64776;42.636;24.358;2023-02-28T05:35:55;49.70;;;17.00;;
76073;SDS011;64776;42.636;24.358;2023-02-28T05:38:57;54.45;;;19.17;;
76073;SDS011;64776;42.636;24.358;2023-02-28T05:41:58;67.85;;;23.20;;
76073;SDS011;64776;42.636;24.358;2023-02-28T05:44:59;52.47;;;20.35;;
76073;SDS011;64776;42.636;24.358;2023-02-28T05:47:59;70.60;;;21.80;;
76073;SDS011;64776;42.636;24.358;2023-02-28T05:51:00;57.25;;;20.65;;
76073;SDS011;64776;42.636;24.358;2023-02-28T05:54:03;83.05;;;21.45;;
76073;SDS011;64776;42.636;24.358;2023-02-28T05:57:04;58.90;;;18.33;;
76073;SDS011;64776;42.636;24.358;2023-02-28T06:00:05;65.53;;;20.77;;
76073;SDS011;64776;42.636;24.358;2023-02-28T06:03:07;49.05;;;16.65;;
76073;SDS011;64776;42.636;24.358;2023-02-28T06:06:08;92.35;;;31.45;;
76073;SDS011;64776;42.636;24.358;2023-02-28T06:09:10;72.30;;;26.50;;
76073;SDS011;64776;42.636;24.358;2023-02-28T06:12:11;87.93;;;33.28;;
76073;SDS011;64776;42.636;24.358;2023-02-28T06:15:12;88.05;;;35.65;;
76073;SDS011;64776;42.636;24.358;2023-02-28T06:18:14;58.38;;;24.83;;
76073;SDS011;64776;42.636;24.358;2023-02-28T06:21:14;71.82;;;30.60;;
76073;SDS011;64776;42.636;24.358;2023-02-28T06:24:17;69.57;;;28.83;;
76073;SDS011;64776;42.636;24.358;2023-02-28T06:27:17;62.55;;;21.83;;
76073;SDS011;64776;42.636;24.358;2023-02-28T06:30:18;65.85;;;25.08;;
76073;SDS011;64776;42.636;24.358;2023-02-28T06:33:20;71.50;;;26.15;;
76073;SDS011;64776;42.636;24.358;2023-02-28T06:36:21;72.97;;;26.58;;
76073;SDS011;64776;42.636;24.358;2023-02-28T06:39:23;80.10;;;24.13;;
76073;SDS011;64776;42.636;24.358;2023-02-28T06:42:24;69.60;;;21.60;;
76073;SDS011;64776;42.636;24.358;2023-02-28T06:45:25;74.28;;;25.88;;
76073;SDS011;64776;42.636;24.358;2023-02-28T06:48:26;59.20;;;26.75;;
76073;SDS011;64776;42.636;24.358;2023-02-28T06:51:28;86.70;;;28.77;;
76073;SDS011;64776;42.636;24.358;2023-02-28T06:54:30;44.97;;;16.67;;
76073;SDS011;64776;42.636;24.358;2023-02-28T06:57:31;51.45;;;16.63;;
76073;SDS011;64776;42.636;24.358;2023-02-28T07:00:33;48.13;;;19.50;;
76073;SDS011;64776;42.636;24.358;2023-02-28T07:03:34;44.10;;;15.65;;
76073;SDS011;64776;42.636;24.358;2023-02-28T07:06:35;45.42;;;18.35;;
76073;SDS011;64776;42.636;24.358;2023-02-28T07:09:38;52.88;;;21.15;;
76073;SDS011;64776;42.636;24.358;2023-02-28T07:12:38;46.78;;;19.90;;
76073;SDS011;64776;42.636;24.358;2023-02-28T07:15:39;51.45;;;17.67;;
76073;SDS011;64776;42.636;24.358;2023-02-28T07:18:41;58.10;;;24.90;;
76073;SDS011;64776;42.636;24.358;2023-02-28T07:21:42;61.00;;;27.00;;
76073;SDS011;64776;42.636;24.358;2023-02-28T07:24:44;196.90;;;92.50;;
76073;SDS011;64776;42.636;24.358;2023-02-28T07:27:45;79.60;;;38.35;;
76073;SDS011;64776;42.636;24.358;2023-02-28T07:30:46;74.93;;;37.55;;
76073;SDS011;64776;42.636;24.358;2023-02-28T07:33:48;68.85;;;33.75;;
76073;SDS011;64776;42.636;24.358;2023-02-28T07:36:48;37.63;;;15.25;;
76073;SDS011;64776;42.636;24.358;2023-02-28T07:39:51;32.22;;;13.32;;
76073;SDS011;64776;42.636;24.358;2023-02-28T07:42:51;41.50;;;16.88;;
76073;SDS011;64776;42.636;24.358;2023-02-28T07:45:52;36.35;;;16.05;;
76073;SDS011;64776;42.636;24.358;2023-02-28T07:48:53;39.05;;;16.05;;
76073;SDS011;64776;42.636;24.358;2023-02-28T07:51:54;42.33;;;17.70;;
76073;SDS011;64776;42.636;24.358;2023-02-28T07:54:56;52.53;;;21.65;;
76073;SDS011;64776;42.636;24.358;2023-02-28T07:57:57;48.25;;;20.55;;
76073;SDS011;64776;42.636;24.358;2023-02-28T08:01:04;40.45;;;18.23;;
76073;SDS011;64776;42.636;24.358;2023-02-28T08:04:05;36.40;;;15.93;;
76073;SDS011;64776;42.636;24.358;2023-02-28T08:07:06;34.33;;;14.07;;
76073;SDS011;64776;42.636;24.358;2023-02-28T08:10:09;35.88;;;13.23;;
76073;SDS011;64776;42.636;24.358;2023-02-28T08:13:10;51.00;;;20.17;;
76073;SDS011;64776;42.636;24.358;2023-02-28T08:16:12;42.53;;;17.30;;
76073;SDS011;64776;42.636;24.358;2023-02-28T08:19:13;37.15;;;15.10;;
76073;SDS011;64776;42.636;24.358;2023-02-28T08:22:14;39.88;;;16.30;;
76073;SDS011;64776;42.636;24.358;2023-02-28T08:25:16;39.08;;;18.70;;
76073;SDS011;64776;42.636;24.358;2023-02-28T08:28:18;41.13;;;17.52;;
76073;SDS011;64776;42.636;24.358;2023-02-28T08:31:19;28.63;;;14.80;;
76073;SDS011;64776;42.636;24.358;2023-02-28T08:34:19;39.45;;;15.65;;
76073;SDS011;64776;42.636;24.358;2023-02-28T08:37:20;35.97;;;17.55;;
76073;SDS011;64776;42.636;24.358;2023-02-28T08:40:22;40.35;;;20.00;;
76073;SDS011;64776;42.636;24.358;2023-02-28T08:43:23;27.42;;;12.93;;
76073;SDS011;64776;42.636;24.358;2023-02-28T08:46:24;27.98;;;13.20;;
76073;SDS011;64776;42.636;24.358;2023-02-28T08:49:25;35.13;;;13.18;;
76073;SDS011;64776;42.636;24.358;2023-02-28T08:52:26;29.70;;;12.55;;
76073;SDS011;64776;42.636;24.358;2023-02-28T08:55:28;29.77;;;11.02;;
76073;SDS011;64776;42.636;24.358;2023-02-28T08:58:29;25.00;;;11.00;;
76073;SDS011;64776;42.636;24.358;2023-02-28T09:01:30;21.10;;;8.85;;
76073;SDS011;64776;42.636;24.358;2023-02-28T09:04:31;28.38;;;12.30;;
76073;SDS011;64776;42.636;24.358;2023-02-28T09:07:33;23.85;;;10.35;;
76073;SDS011;64776;42.636;24.358;2023-02-28T09:10:36;32.70;;;13.15;;
76073;SDS011;64776;42.636;24.358;2023-02-28T09:13:36;20.25;;;9.68;;
76073;SDS011;64776;42.636;24.358;2023-02-28T09:16:37;19.38;;;9.15;;
76073;SDS011;64776;42.636;24.358;2023-02-28T09:19:38;22.98;;;9.90;;
76073;SDS011;64776;42.636;24.358;2023-02-28T09:22:39;24.80;;;12.25;;
76073;SDS011;64776;42.636;24.358;2023-02-28T09:25:46;84.97;;;33.70;;
76073;SDS011;64776;42.636;24.358;2023-02-28T09:28:48;24.92;;;12.77;;
76073;SDS011;64776;42.636;24.358;2023-02-28T09:31:49;30.52;;;13.77;;
76073;SDS011;64776;42.636;24.358;2023-02-28T09:34:50;18.65;;;9.00;;
76073;SDS011;64776;42.636;24.358;2023-02-28T09:37:51;75.72;;;34.95;;
76073;SDS011;64776;42.636;24.358;2023-02-28T09:40:53;39.50;;;16.42;;
76073;SDS011;64776;42.636;24.358;2023-02-28T09:43:57;35.03;;;19.08;;
76073;SDS011;64776;42.636;24.358;2023-02-28T09:47:01;26.05;;;14.27;;
76073;SDS011;64776;42.636;24.358;2023-02-28T09:50:17;38.55;;;20.27;;
76073;SDS011;64776;42.636;24.358;2023-02-28T09:53:29;31.40;;;17.38;;
76073;SDS011;64776;42.636;24.358;2023-02-28T09:56:36;27.65;;;12.15;;
76073;SDS011;64776;42.636;24.358;2023-02-28T09:59:44;19.73;;;9.10;;
76073;SDS011;64776;42.636;24.358;2023-02-28T10:06:30;15.25;;;5.32;;
76073;SDS011;64776;42.636;24.358;2023-02-28T10:09:36;12.32;;;4.30;;
76073;SDS011;64776;42.636;24.358;2023-02-28T10:12:39;19.40;;;6.40;;
76073;SDS011;64776;42.636;24.358;2023-02-28T10:15:44;29.05;;;13.55;;
76073;SDS011;64776;42.636;24.358;2023-02-28T10:18:51;21.83;;;8.60;;
76073;SDS011;64776;42.636;24.358;2023-02-28T10:21:56;19.20;;;9.25;;
76073;SDS011;64776;42.636;24.358;2023-02-28T10:25:00;15.63;;;6.03;;
76073;SDS011;64776;42.636;24.358;2023-02-28T10:28:05;29.95;;;16.23;;
76073;SDS011;64776;42.636;24.358;2023-02-28T10:31:11;17.23;;;9.07;;
76073;SDS011;64776;42.636;24.358;2023-02-28T10:34:15;16.08;;;8.82;;
76073;SDS011;64776;42.636;24.358;2023-02-28T10:37:16;17.88;;;7.35;;
76073;SDS011;64776;42.636;24.358;2023-02-28T10:40:31;16.10;;;6.75;;
76073;SDS011;64776;42.636;24.358;2023-02-28T10:43:35;34.53;;;17.48;;
76073;SDS011;64776;42.636;24.358;2023-02-28T10:46:36;17.55;;;9.32;;
76073;SDS011;64776;42.636;24.358;2023-02-28T10:49:56;44.35;;;22.70;;
76073;SDS011;64776;42.636;24.358;2023-02-28T10:53:17;18.17;;;7.50;;
76073;SDS011;64776;42.636;24.358;2023-02-28T10:56:30;14.15;;;5.93;;
76073;SDS011;64776;42.636;24.358;2023-02-28T10:59:33;21.10;;;10.52;;
76073;SDS011;64776;42.636;24.358;2023-02-28T11:02:35;19.60;;;8.85;;
76073;SDS011;64776;42.636;24.358;2023-02-28T11:05:40;33.17;;;14.02;;
76073;SDS011;64776;42.636;24.358;2023-02-28T11:08:58;22.88;;;9.45;;
76073;SDS011;64776;42.636;24.358;2023-02-28T11:12:02;21.63;;;11.80;;
76073;SDS011;64776;42.636;24.358;2023-02-28T11:15:21;13.35;;;6.93;;
76073;SDS011;64776;42.636;24.358;2023-02-28T11:18:25;63.40;;;30.63;;
76073;SDS011;64776;42.636;24.358;2023-02-28T11:21:30;33.97;;;18.25;;
76073;SDS011;64776;42.636;24.358;2023-02-28T11:24:33;111.78;;;54.63;;
76073;SDS011;64776;42.636;24.358;2023-02-28T11:27:49;42.15;;;21.83;;
76073;SDS011;64776;42.636;24.358;2023-02-28T11:31:01;32.40;;;15.27;;
76073;SDS011;64776;42.636;24.358;2023-02-28T11:40:36;26.13;;;12.93;;
76073;SDS011;64776;42.636;24.358;2023-02-28T11:43:48;26.50;;;15.48;;
76073;SDS011;64776;42.636;24.358;2023-02-28T11:47:06;32.10;;;18.02;;
76073;SDS011;64776;42.636;24.358;2023-02-28T11:50:36;40.55;;;20.02;;
76073;SDS011;64776;42.636;24.358;2023-02-28T11:53:56;29.48;;;18.88;;
76073;SDS011;64776;42.636;24.358;2023-02-28T11:57:16;58.55;;;33.08;;
76073;SDS011;64776;42.636;24.358;2023-02-28T12:00:32;20.55;;;11.23;;
76073;SDS011;64776;42.636;24.358;2023-02-28T12:06:50;21.02;;;8.07;;
76073;SDS011;64776;42.636;24.358;2023-02-28T12:09:59;14.35;;;6.18;;
76073;SDS011;64776;42.636;24.358;2023-02-28T12:13:10;20.33;;;6.25;;
76073;SDS011;64776;42.636;24.358;2023-02-28T12:16:20;20.98;;;7.22;;
76073;SDS011;64776;42.636;24.358;2023-02-28T12:19:46;31.38;;;11.73;;
76073;SDS011;64776;42.636;24.358;2023-02-28T12:23:00;39.70;;;20.77;;
76073;SDS011;64776;42.636;24.358;2023-02-28T12:26:17;37.33;;;16.52;;
76073;SDS011;64776;42.636;24.358;2023-02-28T12:29:26;22.02;;;10.00;;
76073;SDS011;64776;42.636;24.358;2023-02-28T12:32:30;26.98;;;10.05;;
76073;SDS011;64776;42.636;24.358;2023-02-28T12:35:34;30.15;;;14.30;;
76073;SDS011;64776;42.636;24.358;2023-02-28T12:38:39;30.65;;;12.05;;
76073;SDS011;64776;42.636;24.358;2023-02-28T12:41:45;33.72;;;12.02;;
76073;SDS011;64776;42.636;24.358;2023-02-28T12:44:51;24.73;;;10.90;;
76073;SDS011;64776;42.636;24.358;2023-02-28T12:47:55;28.13;;;11.55;;
76073;SDS011;64776;42.636;24.358;2023-02-28T12:51:02;29.92;;;12.00;;
76073;SDS011;64776;42.636;24.358;2023-02-28T12:54:07;28.38;;;16.77;;
76073;SDS011;64776;42.636;24.358;2023-02-28T12:57:15;35.30;;;17.30;;
76073;SDS011;64776;42.636;24.358;2023-02-28T13:00:25;24.17;;;14.85;;
76073;SDS011;64776;42.636;24.358;2023-02-28T13:10:38;39.20;;;16.33;;
76073;SDS011;64776;42.636;24.358;2023-02-28T13:13:40;41.83;;;17.58;;
76073;SDS011;64776;42.636;24.358;2023-02-28T13:16:55;23.30;;;8.35;;
76073;SDS011;64776;42.636;24.358;2023-02-28T13:20:02;26.15;;;11.07;;
76073;SDS011;64776;42.636;24.358;2023-02-28T13:23:04;19.10;;;10.23;;
76073;SDS011;64776;42.636;24.358;2023-02-28T18:57:49;62.97;;;29.92;;
76073;SDS011;64776;42.636;24.358;2023-02-28T19:00:53;75.82;;;33.00;;
76073;SDS011;64776;42.636;24.358;2023-02-28T19:03:54;55.40;;;24.77;;
76073;SDS011;64776;42.636;24.358;2023-02-28T19:06:55;29.90;;;16.48;;
76073;SDS011;64776;42.636;24.358;2023-02-28T19:09:56;44.80;;;19.67;;
76073;SDS011;64776;42.636;24.358;2023-02-28T19:12:58;48.17;;;22.15;;
76073;SDS011;64776;42.636;24.358;2023-02-28T19:16:02;46.63;;;22.27;;
76073;SDS011;64776;42.636;24.358;2023-02-28T19:19:04;47.95;;;23.10;;
76073;SDS011;64776;42.636;24.358;2023-02-28T19:22:05;18.58;;;9.57;;
76073;SDS011;64776;42.636;24.358;2023-02-28T19:25:06;31.48;;;17.88;;
76073;SDS011;64776;42.636;24.358;2023-02-28T19:28:09;45.75;;;25.30;;
76073;SDS011;64776;42.636;24.358;2023-02-28T19:31:10;26.83;;;13.88;;
76073;SDS011;64776;42.636;24.358;2023-02-28T19:34:12;27.52;;;13.13;;
76073;SDS011;64776;42.636;24.358;2023-02-28T19:37:13;33.60;;;16.90;;
76073;SDS011;64776;42.636;24.358;2023-02-28T19:40:14;31.48;;;15.35;;
76073;SDS011;64776;42.636;24.358;2023-02-28T19:43:16;32.92;;;14.95;;
76073;SDS011;64776;42.636;24.358;2023-02-28T19:46:17;39.83;;;19.20;;
76073;SDS011;64776;42.636;24.358;2023-02-28T19:49:17;29.48;;;15.10;;
76073;SDS011;64776;42.636;24.358;2023-02-28T19:52:18;21.27;;;10.70;;
76073;SDS011;64776;42.636;24.358;2023-02-28T19:55:19;26.67;;;14.18;;
76073;SDS011;64776;42.636;24.358;2023-02-28T19:58:21;27.73;;;14.30;;
76073;SDS011;64776;42.636;24.358;2023-02-28T20:01:22;18.83;;;8.70;;
76073;SDS011;64776;42.636;24.358;2023-02-28T20:04:23;18.85;;;8.82;;
76073;SDS011;64776;42.636;24.358;2023-02-28T20:07:27;18.38;;;8.88;;
76073;SDS011;64776;42.636;24.358;2023-02-28T20:10:28;25.45;;;10.93;;
76073;SDS011;64776;42.636;24.358;2023-02-28T20:13:30;27.92;;;13.30;;
76073;SDS011;64776;42.636;24.358;2023-02-28T20:16:31;29.40;;;14.93;;
76073;SDS011;64776;42.636;24.358;2023-02-28T20:19:32;34.97;;;17.08;;
76073;SDS011;64776;42.636;24.358;2023-02-28T20:22:33;28.30;;;13.15;;
76073;SDS011;64776;42.636;24.358;2023-02-28T20:25:37;30.52;;;12.00;;
76073;SDS011;64776;42.636;24.358;2023-02-28T20:28:40;31.27;;;16.80;;
76073;SDS011;64776;42.636;24.358;2023-02-28T20:31:42;29.40;;;13.07;;
76073;SDS011;64776;42.636;24.358;2023-02-28T20:34:42;30.45;;;16.17;;
76073;SDS011;64776;42.636;24.358;2023-02-28T20:37:43;34.17;;;14.00;;
76073;SDS011;64776;42.636;24.358;2023-02-28T20:40:44;68.25;;;28.33;;
76073;SDS011;64776;42.636;24.358;2023-02-28T20:43:46;41.85;;;18.58;;
76073;SDS011;64776;42.636;24.358;2023-02-28T20:46:47;24.30;;;10.77;;
76073;SDS011;64776;42.636;24.358;2023-02-28T20:49:48;23.63;;;10.60;;
76073;SDS011;64776;42.636;24.358;2023-02-28T20:52:48;27.77;;;12.65;;
76073;SDS011;64776;42.636;24.358;2023-02-28T20:55:52;21.05;;;9.02;;
76073;SDS011;64776;42.636;24.358;2023-02-28T20:58:55;20.52;;;8.40;;
76073;SDS011;64776;42.636;24.358;2023-02-28T21:01:56;6.38;;;2.65;;
76073;SDS011;64776;42.636;24.358;2023-02-28T21:04:57;11.52;;;5.13;;
76073;SDS011;64776;42.636;24.358;2023-02-28T21:07:58;25.08;;;9.65;;
76073;SDS011;64776;42.636;24.358;2023-02-28T21:10:58;11.63;;;4.93;;
76073;SDS011;64776;42.636;24.358;2023-02-28T21:14:02;38.70;;;15.35;;
76073;SDS011;64776;42.636;24.358;2023-02-28T21:17:04;38.90;;;15.63;;
76073;SDS011;64776;42.636;24.358;2023-02-28T21:20:05;17.95;;;9.10;;
76073;SDS011;64776;42.636;24.358;2023-02-28T21:23:06;16.63;;;6.63;;
76073;SDS011;64776;42.636;24.358;2023-02-28T21:26:08;15.02;;;6.05;;
76073;SDS011;64776;42.636;24.358;2023-02-28T21:29:12;14.23;;;4.50;;
76073;SDS011;64776;42.636;24.358;2023-02-28T21:32:13;17.65;;;5.63;;
76073;SDS011;64776;42.636;24.358;2023-02-28T21:35:14;22.42;;;4.60;;
76073;SDS011;64776;42.636;24.358;2023-02-28T21:38:15;20.60;;;6.93;;
76073;SDS011;64776;42.636;24.358;2023-02-28T21:41:17;37.08;;;8.80;;
76073;SDS011;64776;42.636;24.358;2023-02-28T21:44:20;18.95;;;6.25;;
76073;SDS011;64776;42.636;24.358;2023-02-28T21:47:21;17.98;;;6.55;;
76073;SDS011;64776;42.636;24.358;2023-02-28T21:50:22;17.05;;;5.63;;
76073;SDS011;64776;42.636;24.358;2023-02-28T21:53:23;21.58;;;7.45;;
76073;SDS011;64776;42.636;24.358;2023-02-28T21:56:25;18.00;;;6.85;;
76073;SDS011;64776;42.636;24.358;2023-02-28T21:59:28;18.00;;;6.45;;
76073;SDS011;64776;42.636;24.358;2023-02-28T22:02:29;11.93;;;4.78;;
76073;SDS011;64776;42.636;24.358;2023-02-28T22:05:29;9.93;;;4.50;;
76073;SDS011;64776;42.636;24.358;2023-02-28T22:08:30;15.35;;;7.05;;
76073;SDS011;64776;42.636;24.358;2023-02-28T22:11:32;11.20;;;4.55;;
76073;SDS011;64776;42.636;24.358;2023-02-28T22:14:35;10.57;;;3.88;;
76073;SDS011;64776;42.636;24.358;2023-02-28T22:17:38;9.15;;;4.38;;
76073;SDS011;64776;42.636;24.358;2023-02-28T22:20:39;6.75;;;2.50;;
76073;SDS011;64776;42.636;24.358;2023-02-28T22:23:40;7.80;;;3.63;;
76073;SDS011;64776;42.636;24.358;2023-02-28T22:26:41;5.43;;;2.20;;
76073;SDS011;64776;42.636;24.358;2023-02-28T22:29:44;7.50;;;3.25;;
76073;SDS011;64776;42.636;24.358;2023-02-28T22:32:44;5.97;;;2.05;;
76073;SDS011;64776;42.636;24.358;2023-02-28T22:35:45;5.10;;;1.38;;
76073;SDS011;64776;42.636;24.358;2023-02-28T22:38:46;4.45;;;1.55;;
76073;SDS011;64776;42.636;24.358;2023-02-28T22:41:48;7.00;;;3.20;;
76073;SDS011;64776;42.636;24.358;2023-02-28T22:44:51;6.18;;;2.42;;
76073;SDS011;64776;42.636;24.358;2023-02-28T22:47:52;5.78;;;2.78;;
76073;SDS011;64776;42.636;24.358;2023-02-28T22:50:59;10.85;;;4.53;;
76073;SDS011;64776;42.636;24.358;2023-02-28T22:54:01;6.95;;;2.45;;
76073;SDS011;64776;42.636;24.358;2023-02-28T22:57:02;12.60;;;4.68;;
76073;SDS011;64776;42.636;24.358;2023-02-28T23:00:04;18.48;;;6.30;;
76073;SDS011;64776;42.636;24.358;2023-02-28T23:03:07;11.93;;;2.47;;
76073;SDS011;64776;42.636;24.358;2023-02-28T23:06:12;8.07;;;2.10;;
76073;SDS011;64776;42.636;24.358;2023-02-28T23:09:15;4.30;;;1.58;;
76073;SDS011;64776;42.636;24.358;2023-02-28T23:12:17;5.55;;;2.08;;
76073;SDS011;64776;42.636;24.358;2023-02-28T23:15:20;8.85;;;2.60;;
76073;SDS011;64776;42.636;24.358;2023-02-28T23:18:20;11.90;;;3.88;;
76073;SDS011;64776;42.636;24.358;2023-02-28T23:21:21;15.25;;;5.43;;
76073;SDS011;64776;42.636;24.358;2023-02-28T23:24:23;7.70;;;3.85;;
76073;SDS011;64776;42.636;24.358;2023-02-28T23:27:25;6.68;;;2.92;;
76073;SDS011;64776;42.636;24.358;2023-02-28T23:30:28;5.05;;;2.20;;
76073;SDS011;64776;42.636;24.358;2023-02-28T23:33:28;5.75;;;2.47;;
76073;SDS011;64776;42.636;24.358;2023-02-28T23:36:30;7.43;;;3.03;;
76073;SDS011;64776;42.636;24.358;2023-02-28T23:39:30;120.35;;;33.28;;
76073;SDS011;64776;42.636;24.358;2023-02-28T23:42:31;12.55;;;4.88;;